Time;durP1;ratioP1;P1;durP2;ratioP2;P2;SDS_P1;SDS_P2;PMS_P1;PMS_P2;Temp;Humidity;BMP_temperature;BMP_pressure;BME280_temperature;BME280_humidity;BME280_pressure;Samples;Min_cycle;Max_cycle;Signal;HPM_P1;HPM_P2
2023/03/13 00:08:04;;;;;;;5.63;2.93;;;;;;;;;;5084705;28;20627;-78
2023/03/13 00:10:32;;;;;;;5.07;3.10;;;;;;;;;;5071957;28;20453;-79
2023/03/13 00:12:59;;;;;;;8.57;3.20;;;;;;;;;;5053524;28;20524;-78
2023/03/13 00:15:26;;;;;;;7.40;2.70;;;;;;;;;;5072091;28;20446;-77
2023/03/13 00:17:53;;;;;;;17.83;3.40;;;;;;;;;;5072325;28;20457;-79
2023/03/13 00:20:20;;;;;;;8.73;2.70;;;;;;;;;;5071641;28;20449;-79
2023/03/13 00:22:47;;;;;;;6.57;2.40;;;;;;;;;;5070143;28;20445;-79
2023/03/13 00:25:16;;;;;;;8.80;3.50;;;;;;;;;;5070225;28;20442;-79
2023/03/13 00:27:43;;;;;;;6.60;3.43;;;;;;;;;;5070052;28;20489;-79
2023/03/13 00:30:11;;;;;;;5.17;2.80;;;5.10;99.90;;;;;;5070262;28;20454;-80
2023/03/13 00:32:41;;;;;;;7.80;4.10;;;;;;;;;;5068720;28;20809;-78
2023/03/13 00:35:08;;;;;;;9.50;4.40;;;;;;;;;;5070154;28;20526;-79
2023/03/13 00:37:35;;;;;;;7.30;3.60;;;;;;;;;;5070104;28;20674;-81
2023/03/13 00:40:03;;;;;;;10.30;3.20;;;;;;;;;;5069528;28;20446;-80
2023/03/13 00:42:32;;;;;;;11.47;3.20;;;;;;;;;;5069500;28;20457;-82
2023/03/13 00:44:59;;;;;;;8.43;2.97;;;;;;;;;;5070215;28;20441;-80
2023/03/13 00:47:26;;;;;;;9.40;4.93;;;;;;;;;;5069307;28;20498;-79
2023/03/13 00:49:53;;;;;;;5.83;2.90;;;;;;;;;;5069553;28;20457;-79
2023/03/13 00:52:20;;;;;;;23.30;16.40;;;;;;;;;;5070024;28;20453;-80
2023/03/13 00:54:47;;;;;;;17.90;8.20;;;;;;;;;;5069408;28;20445;-80
2023/03/13 00:57:14;;;;;;;9.17;4.60;;;;;;;;;;5069696;28;20446;-80
2023/03/13 00:59:43;;;;;;;7.53;3.20;;;;;;;;;;5069834;28;20472;-80
2023/03/13 01:02:10;;;;;;;12.37;6.70;;;;;;;;;;5069884;28;20454;-79
2023/03/13 01:04:37;;;;;;;8.00;3.63;;;;;;;;;;5068275;28;20450;-81
2023/03/13 01:07:04;;;;;;;10.80;3.20;;;;;;;;;;5071812;28;20501;-80
2023/03/13 01:09:31;;;;;;;7.13;2.40;;;;;;;;;;5068953;28;20519;-80
2023/03/13 01:11:58;;;;;;;7.80;5.50;;;;;;;;;;5068113;28;20446;-81
2023/03/13 01:14:25;;;;;;;4.27;2.17;;;;;;;;;;5069714;28;20815;-79
2023/03/13 01:16:53;;;;;;;14.70;7.70;;;6.10;99.90;;;;;;5069521;28;20465;-81
2023/03/13 01:19:20;;;;;;;7.63;3.40;;;;;;;;;;5055306;28;20442;-79
2023/03/13 01:21:47;;;;;;;13.37;9.97;;;;;;;;;;5055923;28;20447;-79
2023/03/13 01:24:15;;;;;;;11.30;3.40;;;;;;;;;;5055942;28;20447;-80
2023/03/13 01:26:42;;;;;;;7.37;2.60;;;;;;;;;;5055714;28;20540;-79
2023/03/13 01:29:09;;;;;;;10.20;4.80;;;;;;;;;;5055919;28;20457;-79
2023/03/13 01:31:37;;;;;;;9.93;3.27;;;;;;;;;;5055793;28;20457;-80
2023/03/13 01:34:06;;;;;;;4.73;1.67;;;6.90;99.90;;;;;;5054631;28;20450;-79
2023/03/13 01:36:33;;;;;;;3.40;1.57;;;;;;;;;;5055564;28;20438;-80
2023/03/13 01:39:01;;;;;;;13.73;2.10;;;7.10;99.90;;;;;;5055746;28;20785;-80
2023/03/13 01:41:29;;;;;;;6.00;1.90;;;7.30;99.90;;;;;;5055807;28;20451;-79
2023/03/13 01:43:57;;;;;;;4.97;1.80;;;;;;;;;;5055564;28;20809;-79
2023/03/13 01:46:26;;;;;;;5.70;1.93;;;7.40;99.90;;;;;;5055653;28;20453;-82
2023/03/13 01:48:57;;;;;;;6.87;2.27;;;7.40;99.90;;;;;;5051492;28;20802;-79
2023/03/13 01:51:28;;;;;;;4.30;2.10;;;7.50;99.90;;;;;;5055125;28;20450;-79
2023/03/13 01:54:00;;;;;;;5.80;1.57;;;7.50;99.90;;;;;;5055605;28;20964;-81
2023/03/13 01:56:33;;;;;;;9.73;2.43;;;7.60;99.90;;;;;;5055322;28;20790;-80
2023/03/13 01:59:01;;;;;;;6.97;2.20;;;;;;;;;;5054975;28;20997;-80
2023/03/13 02:01:28;;;;;;;6.70;2.27;;;;;;;;;;5056154;28;20451;-85
2023/03/13 02:03:57;;;;;;;5.33;1.63;;;7.60;99.90;;;;;;5054140;28;20848;-81
2023/03/13 02:06:30;;;;;;;7.90;2.33;;;7.70;99.90;;;;;;5054821;28;20451;-82
2023/03/13 02:09:00;;;;;;;10.10;2.43;;;7.90;99.90;;;;;;5055036;28;20516;-80
2023/03/13 02:11:37;;;;;;;5.20;1.60;;;7.90;99.90;;;;;;5055396;28;20450;-80
2023/03/13 02:14:05;;;;;;;5.20;1.63;;;7.90;99.90;;;;;;5054952;28;20922;-79
2023/03/13 02:16:33;;;;;;;2.90;0.90;;;8.00;99.90;;;;;;5054570;28;20533;-80
2023/03/13 02:19:02;;;;;;;5.00;1.83;;;8.00;99.90;;;;;;5053629;28;20454;-79
2023/03/13 02:21:41;;;;;;;6.00;1.80;;;8.10;99.90;;;;;;5054724;28;20450;-78
2023/03/13 02:24:15;;;;;;;4.67;1.03;;;8.20;99.90;;;;;;5054932;28;20449;-79
2023/03/13 02:26:44;;;;;;;5.43;1.70;;;;;;;;;;5053290;28;20489;-79
2023/03/13 02:29:17;;;;;;;1.73;0.70;;;8.10;99.90;;;;;;5053974;28;20458;-79
2023/03/13 02:31:44;;;;;;;3.50;0.87;;;;;;;;;;5052239;28;20450;-82
2023/03/13 02:34:11;;;;;;;0.80;0.40;;;;;;;;;;5052188;28;20986;-79
2023/03/13 02:36:38;;;;;;;4.13;0.57;;;;;;;;;;5055614;28;20458;-83
2023/03/13 02:39:06;;;;;;;3.50;1.13;;;8.40;99.90;;;;;;5054646;28;20942;-78
2023/03/13 02:41:35;;;;;;;4.53;1.60;;;8.40;99.90;;;;;;5054913;28;20454;-78
2023/03/13 02:44:05;;;;;;;1.40;0.80;;;;;;;;;;5056177;28;20820;-78
2023/03/13 02:46:44;;;;;;;4.27;1.30;;;8.30;99.90;;;;;;5056787;28;20451;-77
2023/03/13 02:49:24;;;;;;;6.63;1.53;;;8.40;99.90;;;;;;5055657;28;20508;-78
2023/03/13 02:51:53;;;;;;;8.40;1.73;;;8.60;99.90;;;;;;5054548;28;20816;-80
2023/03/13 02:54:24;;;;;;;3.83;1.00;;;8.60;99.90;;;;;;5054063;28;20447;-78
2023/03/13 02:56:54;;;;;;;2.33;0.53;;;8.60;99.90;;;;;;5053797;28;20455;-80
2023/03/13 02:59:22;;;;;;;2.27;1.20;;;8.60;99.90;;;;;;5054012;28;20453;-84
2023/03/13 03:01:51;;;;;;;2.17;0.97;;;;;;;;;;5054985;28;20462;-78
2023/03/13 03:04:18;;;;;;;2.80;1.30;;;;;;;;;;5052562;28;20483;-79
2023/03/13 03:06:45;;;;;;;2.13;1.00;;;;;;;;;;5053654;28;20484;-79
2023/03/13 03:09:13;;;;;;;5.80;1.50;;;;;;;;;;5053733;28;20443;-79
2023/03/13 03:11:40;;;;;;;1.60;0.93;;;;;;;;;;5053537;28;20454;-80
2023/03/13 03:14:07;;;;;;;4.93;1.37;;;;;;;;;;5053317;28;20505;-82
2023/03/13 03:16:35;;;;;;;1.67;0.77;;;;;;;;;;5053841;28;20453;-81
2023/03/13 03:19:03;;;;;;;6.23;1.10;;;;;;;;;;5052611;28;20470;-79
2023/03/13 03:21:30;;;;;;;4.80;1.83;;;;;;;;;;5053139;28;20803;-81
2023/03/13 03:23:57;;;;;;;3.23;0.70;;;;;;;;;;5053429;28;20446;-80
2023/03/13 03:26:24;;;;;;;3.33;1.53;;;;;;;;;;5053449;28;20446;-83
2023/03/13 03:28:51;;;;;;;1.93;0.60;;;;;;;;;;5053379;28;20490;-80
2023/03/13 03:31:18;;;;;;;3.93;1.43;;;;;;;;;;5053606;28;20458;-80
2023/03/13 03:33:47;;;;;;;4.50;1.20;;;8.80;99.90;;;;;;5052664;28;20457;-80
2023/03/13 03:36:16;;;;;;;3.17;0.90;;;8.70;99.90;;;;;;5053785;28;20450;-80
2023/03/13 03:38:44;;;;;;;1.90;1.00;;;8.80;99.90;;;;;;5053413;28;21006;-79
2023/03/13 03:41:12;;;;;;;2.40;0.83;;;8.90;99.90;;;;;;5055755;28;20504;-79
2023/03/13 03:43:39;;;;;;;2.80;0.77;;;;;;;;;;5053829;28;20460;-80
2023/03/13 03:46:07;;;;;;;2.23;0.87;;;;;;;;;;5053136;28;20450;-80
2023/03/13 03:48:34;;;;;;;2.10;0.80;;;;;;;;;;5051867;28;20522;-79
2023/03/13 03:51:02;;;;;;;2.80;0.73;;;;;;;;;;5053396;28;20450;-80
2023/03/13 03:53:31;;;;;;;1.90;0.60;;;;;;;;;;5053242;28;20454;-80
2023/03/13 03:55:58;;;;;;;2.90;0.60;;;;;;;;;;5053202;28;20512;-82
2023/03/13 03:58:25;;;;;;;1.33;0.70;;;;;;;;;;5053033;28;20481;-81
2023/03/13 04:00:52;;;;;;;0.90;0.70;;;;;;;;;;5052954;28;20450;-83
2023/03/13 04:03:19;;;;;;;1.83;0.60;;;;;;;;;;5051560;28;20450;-85
2023/03/13 04:05:46;;;;;;;0.50;0.37;;;;;;;;;;5053251;28;20464;-81
2023/03/13 04:08:15;;;;;;;4.10;0.90;;;;;;;;;;5052957;28;20502;-80
2023/03/13 04:10:42;;;;;;;0.50;0.30;;;;;;;;;;5052505;28;20450;-86
2023/03/13 04:13:09;;;;;;;1.37;0.50;;;;;;;;;;5053023;28;20451;-83
2023/03/13 04:15:38;;;;;;;0.50;0.30;;;;;;;;;;5054057;28;20798;-83
2023/03/13 04:18:05;;;;;;;2.43;0.40;;;;;;;;;;5052123;28;20447;-82
2023/03/13 04:20:33;;;;;;;0.73;0.40;;;;;;;;;;5054675;28;20447;-88
2023/03/13 04:23:00;;;;;;;1.93;0.70;;;;;;;;;;5053287;28;20454;-82
2023/03/13 04:25:28;;;;;;;0.70;0.37;;;11.00;99.90;;;;;;5051600;28;20454;-81
2023/03/13 04:27:55;;;;;;;0.80;0.50;;;;;;;;;;5054202;28;20495;-83
2023/03/13 04:30:22;;;;;;;0.40;0.20;;;;;;;;;;5053508;28;20462;-83
2023/03/13 04:32:50;;;;;;;2.13;0.43;;;;;;;;;;5051873;28;20465;-87
2023/03/13 04:35:17;;;;;;;0.60;0.33;;;;;;;;;;5052399;28;20821;-83
2023/03/13 04:37:44;;;;;;;1.10;0.53;;;;;;;;;;5053400;28;20457;-81
2023/03/13 04:40:12;;;;;;;1.07;0.40;;;10.90;99.90;;;;;;5053400;28;20972;-79
2023/03/13 04:42:40;;;;;;;1.63;0.50;;;10.90;99.90;;;;;;5052776;28;20848;-79
2023/03/13 04:45:09;;;;;;;0.57;0.40;;;10.80;99.90;;;;;;5052550;28;20945;-84
2023/03/13 04:47:36;;;;;;;1.27;0.73;;;;;;;;;;5051352;28;20478;-85
2023/03/13 04:50:03;;;;;;;2.10;1.13;;;;;;;;;;5052683;28;20458;-82
2023/03/13 04:52:30;;;;;;;1.47;0.90;;;;;;;;;;5052785;28;20492;-84
2023/03/13 04:54:57;;;;;;;2.07;1.03;;;;;;;;;;5056752;28;20804;-79
2023/03/13 04:57:24;;;;;;;1.83;0.70;;;;;;;;;;5058931;28;20815;-86
2023/03/13 04:59:53;;;;;;;0.90;0.60;;;;;;;;;;5059903;28;20824;-84
2023/03/13 05:02:20;;;;;;;1.13;0.50;;;;;;;;;;5059444;28;20453;-79
2023/03/13 05:04:47;;;;;;;2.80;0.63;;;;;;;;;;5057891;28;20438;-86
2023/03/13 05:07:14;;;;;;;1.80;0.77;;;;;;;;;;5057327;28;20481;-88
2023/03/13 05:09:41;;;;;;;1.63;1.27;;;;;;;;;;5056933;28;20442;-87
2023/03/13 05:12:09;;;;;;;1.40;0.53;;;;;;;;;;5056463;28;20938;-86
2023/03/13 05:14:36;;;;;;;0.83;0.43;;;;;;;;;;5056349;28;20442;-87
2023/03/13 05:17:04;;;;;;;1.53;0.40;;;;;;;;;;5056500;28;20457;-90
2023/03/13 05:19:31;;;;;;;0.77;0.50;;;;;;;;;;5056861;28;20457;-89
2023/03/13 05:21:58;;;;;;;0.70;0.53;;;;;;;;;;5059091;28;20496;-87
2023/03/13 05:24:25;;;;;;;1.10;0.83;;;;;;;;;;5059095;28;20447;-92
2023/03/13 05:26:52;;;;;;;0.60;0.40;;;;;;;;;;5061791;28;20443;-85
2023/03/13 05:29:20;;;;;;;0.97;0.40;;;;;;;;;;5060331;28;20490;-77
2023/03/13 05:31:47;;;;;;;0.67;0.43;;;;;;;;;;5056976;28;20457;-82
2023/03/13 05:34:15;;;;;;;1.80;0.40;;;;;;;;;;5056485;28;20449;-88
2023/03/13 05:36:42;;;;;;;0.67;0.40;;;;;;;;;;5058628;28;20465;-93
2023/03/13 05:39:09;;;;;;;0.83;0.50;;;;;;;;;;5058030;28;20455;-78
2023/03/13 05:41:36;;;;;;;0.40;0.20;;;;;;;;;;5056697;28;20454;-81
2023/03/13 05:44:03;;;;;;;1.13;0.37;;;;;;;;;;5061383;28;20462;-84
2023/03/13 05:46:31;;;;;;;1.03;0.47;;;;;;;;;;5057780;28;20987;-85
2023/03/13 05:48:58;;;;;;;0.90;0.50;;;;;;;;;;5054501;28;20494;-86
2023/03/13 05:51:26;;;;;;;0.50;0.30;;;;;;;;;;5055815;28;20446;-81
2023/03/13 05:53:53;;;;;;;0.83;0.40;;;;;;;;;;5056835;28;20443;-86
2023/03/13 05:56:20;;;;;;;1.17;0.57;;;;;;;;;;5057174;28;20475;-86
2023/03/13 05:58:48;;;;;;;0.50;0.30;;;;;;;;;;5057590;28;20808;-91
2023/03/13 06:01:15;;;;;;;0.60;0.30;;;;;;;;;;5055041;28;20447;-85
2023/03/13 06:03:42;;;;;;;0.83;0.40;;;;;;;;;;5054119;28;20447;-83
2023/03/13 06:06:09;;;;;;;1.10;0.30;;;;;;;;;;5055004;28;20446;-85
2023/03/13 06:08:37;;;;;;;0.50;0.30;;;11.20;99.90;;;;;;5055809;28;20816;-89
2023/03/13 06:11:04;;;;;;;0.40;0.30;;;;;;;;;;5055490;28;20454;-88
2023/03/13 06:13:32;;;;;;;0.97;0.40;;;;;;;;;;5054917;28;20447;-86
2023/03/13 06:16:00;;;;;;;0.53;0.30;;;11.30;99.90;;;;;;5054508;28;20451;-83
2023/03/13 06:18:27;;;;;;;0.50;0.40;;;11.30;99.90;;;;;;5053687;28;20459;-83
2023/03/13 06:20:57;;;;;;;0.40;0.30;;;11.30;99.90;;;;;;5057126;28;20439;-83
2023/03/13 06:23:25;;;;;;;0.70;0.40;;;;;;;;;;5056741;28;20548;-91
2023/03/13 06:25:53;;;;;;;0.40;0.30;;;;;;;;;;5057263;28;20463;-89
2023/03/13 06:28:20;;;;;;;0.57;0.33;;;;;;;;;;5057046;28;21015;-88
2023/03/13 06:30:47;;;;;;;0.40;0.30;;;;;;;;;;5056498;28;20526;-86
2023/03/13 06:33:14;;;;;;;0.40;0.30;;;;;;;;;;5053566;28;20447;-88
2023/03/13 06:35:41;;;;;;;3.53;0.50;;;;;;;;;;5055411;28;20450;-83
2023/03/13 06:38:09;;;;;;;0.50;0.30;;;;;;;;;;5058705;28;20458;-85
2023/03/13 06:40:36;;;;;;;0.60;0.40;;;;;;;;;;5055480;28;20474;-82
2023/03/13 06:43:04;;;;;;;0.50;0.30;;;;;;;;;;5054592;28;20470;-83
2023/03/13 06:45:32;;;;;;;0.90;0.47;;;;;;;;;;5055539;28;20949;-94
2023/03/13 06:47:59;;;;;;;1.00;0.63;;;;;;;;;;5054417;28;20438;-87
2023/03/13 06:50:26;;;;;;;1.97;0.57;;;;;;;;;;5057165;28;20447;-89
2023/03/13 06:52:53;;;;;;;0.50;0.30;;;;;;;;;;5055850;28;20450;-89
2023/03/13 06:55:20;;;;;;;0.80;0.40;;;;;;;;;;5054626;28;20454;-90
2023/03/13 06:57:50;;;;;;;0.50;0.30;;;;;;;;;;5054766;28;20465;-78
2023/03/13 07:00:19;;;;;;;0.70;0.50;;;;;;;;;;5054567;28;20446;-91
2023/03/13 07:02:48;;;;;;;1.03;0.60;;;;;;;;;;5052647;28;20446;-92
2023/03/13 07:05:16;;;;;;;0.60;0.30;;;;;;;;;;5054673;28;20935;-88
2023/03/13 07:07:43;;;;;;;0.50;0.40;;;;;;;;;;5055605;28;20484;-89
2023/03/13 07:10:14;;;;;;;0.80;0.40;;;;;;;;;;5058666;28;20552;-95
2023/03/13 07:13:11;;;;;;;0.47;0.30;;;11.50;99.90;;;;;;5060390;28;20521;-95
2023/03/13 07:15:39;;;;;;;3.70;0.43;;;;;;;;;;5048576;28;20461;-91
2023/03/13 07:18:06;;;;;;;1.13;0.93;;;;;;;;;;5055370;28;20461;-89
2023/03/13 07:20:34;;;;;;;1.83;1.07;;;;;;;;;;5056109;28;20442;-92
2023/03/13 07:23:01;;;;;;;1.23;0.67;;;;;;;;;;5056264;28;20462;-89
2023/03/13 07:25:28;;;;;;;7.83;4.37;;;;;;;;;;5054933;28;20446;-89
2023/03/13 07:27:55;;;;;;;10.20;5.80;;;;;;;;;;5054596;28;20458;-89
2023/03/13 07:30:23;;;;;;;2.50;1.20;;;;;;;;;;5054138;28;20447;-90
2023/03/13 07:32:51;;;;;;;2.40;1.60;;;;;;;;;;5053145;28;20450;-91
2023/03/13 07:35:18;;;;;;;1.20;0.87;;;;;;;;;;5054096;28;20458;-89
2023/03/13 07:37:45;;;;;;;0.83;0.63;;;;;;;;;;5053972;28;20451;-84
2023/03/13 07:40:13;;;;;;;1.53;0.90;;;;;;;;;;5055233;28;20446;-89
2023/03/13 07:42:44;;;;;;;4.67;4.23;;;;;;;;;;5036399;28;20866;-94
2023/03/13 07:45:13;;;;;;;6.50;2.80;;;;;;;;;;5035049;28;20474;-91
2023/03/13 07:47:40;;;;;;;8.33;2.53;;;;;;;;;;5035553;28;20448;-93
2023/03/13 07:50:09;;;;;;;2.87;1.30;;;11.60;99.90;;;;;;5033979;28;20590;-86
2023/03/13 07:52:37;;;;;;;1.70;1.23;;;;;;;;;;5033712;28;20448;-86
2023/03/13 07:55:04;;;;;;;0.50;0.40;;;;;;;;;;5033679;28;20451;-91
2023/03/13 07:57:32;;;;;;;0.90;0.90;;;11.70;99.90;;;;;;5033668;28;20439;-82
2023/03/13 07:59:59;;;;;;;1.53;1.23;;;;;;;;;;5034433;28;20451;-84
2023/03/13 08:02:26;;;;;;;1.60;0.73;;;;;;;;;;5036056;28;20463;-90
2023/03/13 08:04:53;;;;;;;2.63;1.27;;;;;;;;;;5031799;28;20447;-85
2023/03/13 08:07:22;;;;;;;1.10;0.70;;;;;;;;;;5033067;28;20557;-86
2023/03/13 08:09:49;;;;;;;1.63;0.90;;;;;;;;;;5033191;28;20494;-82
2023/03/13 08:12:16;;;;;;;2.10;1.80;;;;;;;;;;5033030;28;20935;-84
2023/03/13 08:14:45;;;;;;;1.47;0.90;;;;;;;;;;5032696;28;20816;-89
2023/03/13 08:17:12;;;;;;;1.97;1.33;;;;;;;;;;5053997;28;20456;-77
2023/03/13 08:19:39;;;;;;;6.50;4.50;;;;;;;;;;5055988;28;20451;-85
2023/03/13 08:22:06;;;;;;;3.83;3.20;;;;;;;;;;5055141;28;20446;-89
2023/03/13 08:24:35;;;;;;;2.90;2.23;;;;;;;;;;5054928;28;20813;-91
2023/03/13 08:27:05;;;;;;;2.33;1.70;;;;;;;;;;5057183;28;20447;-86
2023/03/13 08:29:32;;;;;;;10.47;8.30;;;;;;;;;;5058224;28;20577;-88
2023/03/13 08:32:00;;;;;;;1.90;0.30;;;;;;;;;;5058375;28;20533;-90
2023/03/13 08:34:27;;;;;;;2.93;1.67;;;;;;;;;;5060244;28;20484;-87
2023/03/13 08:36:55;;;;;;;1.33;1.07;;;;;;;;;;5060798;28;20541;-87
2023/03/13 08:39:22;;;;;;;0.80;0.63;;;;;;;;;;5059208;28;20458;-92
2023/03/13 08:41:51;;;;;;;0.47;0.40;;;;;;;;;;5067228;28;20476;-92
2023/03/13 08:44:26;;;;;;;1.00;0.70;;;;;;;;;;5065853;28;20437;-92
2023/03/13 08:46:53;;;;;;;1.93;0.50;;;;;;;;;;5028346;28;20868;-91
2023/03/13 08:49:20;;;;;;;1.00;0.63;;;;;;;;;;5056160;28;20481;-91
2023/03/13 08:51:47;;;;;;;0.60;0.47;;;;;;;;;;5056874;28;20458;-87
2023/03/13 08:54:15;;;;;;;0.80;0.40;;;;;;;;;;5056813;28;20452;-87
2023/03/13 08:56:42;;;;;;;1.27;0.73;;;;;;;;;;5055959;28;20463;-87
2023/03/13 08:59:17;;;;;;;0.93;0.60;;;;;;;;;;5056568;28;20984;-92
2023/03/13 09:01:44;;;;;;;0.50;0.40;;;;;;;;;;5056349;28;20442;-86
2023/03/13 09:04:11;;;;;;;0.80;0.50;;;;;;;;;;5055475;28;20649;-85
2023/03/13 09:06:39;;;;;;;3.10;0.80;;;13.10;99.90;;;;;;5056386;28;20470;-92
2023/03/13 09:09:06;;;;;;;0.60;0.37;;;;;;;;;;5055977;28;20494;-87
2023/03/13 09:11:33;;;;;;;1.10;0.60;;;;;;;;;;5055868;28;20450;-84
2023/03/13 09:14:01;;;;;;;0.93;0.50;;;;;;;;;;5055820;28;20451;-89
2023/03/13 09:16:30;;;;;;;5.70;1.27;;;13.10;99.90;;;;;;5056079;28;20878;-85
2023/03/13 09:18:58;;;;;;;0.70;0.40;;;;;;;;;;5054585;28;20454;-88
2023/03/13 09:21:27;;;;;;;1.67;0.43;;;13.20;99.90;;;;;;5056022;28;20454;-88
2023/03/13 09:23:54;;;;;;;2.40;1.00;;;;;;;;;;5055967;28;20501;-87
2023/03/13 09:26:23;;;;;;;1.40;0.80;;;;;;;;;;5056196;28;20549;-88
2023/03/13 09:28:58;;;;;;;0.70;0.47;;;;;;;;;;5056103;28;20446;-92
2023/03/13 09:31:26;;;;;;;0.80;0.80;;;;;;;;;;5055738;28;20534;-90
2023/03/13 09:34:26;;;;;;;1.80;0.97;;;;;;;;;;5054869;28;20891;-91
2023/03/13 09:42:42;;;;;;;0.70;0.50;;;;;;;;;;5011845;28;20463;-92
2023/03/13 09:45:22;;;;;;;0.83;0.40;;;;;;;;;;4937125;29;20448;-80
2023/03/13 09:47:54;;;;;;;4.60;0.70;;;14.20;99.90;;;;;;5011668;28;20491;-89
2023/03/13 09:50:27;;;;;;;1.27;0.80;;;;;;;;;;5016373;28;21057;-88
2023/03/13 09:52:56;;;;;;;3.93;0.80;;;;;;;;;;5017339;28;20540;-91
2023/03/13 09:55:24;;;;;;;1.23;0.80;;;;;;;;;;5017929;28;21187;-86
2023/03/13 09:57:54;;;;;;;2.00;0.53;;;15.30;99.90;;;;;;5017883;28;20445;-89
2023/03/13 10:00:27;;;;;;;1.27;0.77;;;15.80;99.90;;;;;;5015183;28;20819;-83
2023/03/13 10:02:57;;;;;;;1.07;0.50;;;15.40;99.90;;;;;;5013973;28;20456;-80
2023/03/13 10:05:26;;;;;;;1.43;0.57;;;15.30;99.90;;;;;;5015009;28;20940;-82
2023/03/13 10:07:58;;;;;;;0.87;0.60;;;15.80;99.90;;;;;;5015126;28;20444;-82
2023/03/13 10:10:38;;;;;;;1.20;1.00;;;16.40;99.90;;;;;;5012203;28;20501;-82
2023/03/13 10:13:16;;;;;;;1.07;0.80;;;16.40;99.90;;;;;;5014671;28;20440;-82
2023/03/13 10:15:49;;;;;;;2.43;0.97;;;15.90;99.90;;;;;;5014836;28;20444;-79
2023/03/13 10:18:20;;;;;;;3.93;1.67;;;16.50;99.90;;;;;;5011284;28;20455;-81
2023/03/13 10:20:48;;;;;;;1.63;0.90;;;16.40;98.10;;;;;;5014799;28;20460;-78
2023/03/13 10:23:21;;;;;;;1.87;1.43;;;16.00;98.20;;;;;;5013079;28;20815;-82
2023/03/13 10:25:48;;;;;;;1.33;0.87;;;;;;;;;;5014618;28;20452;-90
2023/03/13 10:28:18;;;;;;;0.90;0.50;;;16.60;97.20;;;;;;5014741;28;20498;-83
2023/03/13 10:30:50;;;;;;;2.77;1.50;;;16.60;99.90;;;;;;5014492;28;20911;-80
2023/03/13 10:33:25;;;;;;;1.27;1.17;;;16.70;94.30;;;;;;5013416;28;20940;-78
2023/03/13 10:36:07;;;;;;;1.40;1.00;;;16.90;99.90;;;;;;5014042;28;20458;-83
2023/03/13 10:38:45;;;;;;;0.93;0.60;;;16.30;99.90;;;;;;4994895;28;20488;-83
2023/03/13 10:41:23;;;;;;;1.23;0.70;;;16.10;99.90;;;;;;4994852;28;20449;-78
2023/03/13 10:43:52;;;;;;;1.00;0.80;;;;;;;;;;4994958;28;20461;-79
2023/03/13 10:46:26;;;;;;;1.50;1.30;;;;;;;;;;4994795;28;20476;-77
2023/03/13 10:48:55;;;;;;;2.93;1.50;;;15.70;99.90;;;;;;4993482;28;20472;-80
2023/03/13 10:51:23;;;;;;;0.77;0.63;;;15.70;99.20;;;;;;4993738;28;21003;-81
2023/03/13 10:53:50;;;;;;;3.40;1.87;;;;;;;;;;4994669;28;20449;-81
2023/03/13 10:56:28;;;;;;;0.80;0.70;;;15.90;99.90;;;;;;4994612;28;20520;-78
2023/03/13 10:58:55;;;;;;;1.43;1.17;;;;;;;;;;4994603;28;20463;-81
2023/03/13 11:01:24;;;;;;;1.40;0.90;;;16.00;99.90;;;;;;4994468;28;20480;-79
2023/03/13 11:03:54;;;;;;;4.37;1.43;;;16.10;99.90;;;;;;4993113;28;20457;-80
2023/03/13 11:06:28;;;;;;;3.30;1.40;;;16.30;99.90;;;;;;4994145;28;20995;-82
2023/03/13 11:09:13;;;;;;;0.93;0.73;;;16.30;97.00;;;;;;4994249;28;20453;-78
2023/03/13 11:11:47;;;;;;;0.60;0.53;;;16.40;95.20;;;;;;4994295;28;20449;-82
2023/03/13 11:14:18;;;;;;;5.73;1.20;;;16.30;98.70;;;;;;4994146;28;20449;-81
2023/03/13 11:16:50;;;;;;;2.70;1.93;;;16.30;95.80;;;;;;4994262;28;20446;-82
2023/03/13 11:19:34;;;;;;;2.13;1.30;;;16.10;99.90;;;;;;4990522;28;20481;-82
2023/03/13 11:22:25;;;;;;;1.97;1.03;;;16.20;99.50;;;;;;4993839;28;20445;-84
2023/03/13 11:25:04;;;;;;;3.00;1.30;;;;;;;;;;4994695;28;20540;-90
2023/03/13 11:27:36;;;;;;;4.40;2.40;;;;;;;;;;4994487;28;20445;-90
2023/03/13 11:30:17;;;;;;;1.00;0.80;;;;;;;;;;4994261;28;20489;-89
2023/03/13 11:32:48;;;;;;;1.97;1.43;;;;;;;;;;4993217;28;20528;-86
2023/03/13 11:35:36;;;;;;;2.70;1.93;;;;;;;;;;4994058;28;20456;-88
2023/03/13 11:38:08;;;;;;;1.30;1.20;;;;;;;;;;4993986;28;20552;-86
2023/03/13 11:40:37;;;;;;;2.67;1.13;;;;;;;;;;4993941;28;20941;-88
2023/03/13 11:43:12;;;;;;;2.27;0.80;;;;;;;;;;4994051;28;20445;-87
2023/03/13 11:45:53;;;;;;;2.33;0.90;;;;;;;;;;4993910;28;20925;-90
2023/03/13 11:48:37;;;;;;;1.13;0.80;;;18.10;91.60;;;;;;4993274;28;20940;-88
2023/03/13 11:51:12;;;;;;;1.40;0.90;;;;;;;;;;4994321;28;20503;-87
2023/03/13 11:53:44;;;;;;;4.50;1.30;;;;;;;;;;4993456;28;20812;-85
2023/03/13 11:56:16;;;;;;;2.47;1.00;;;;;;;;;;4993625;28;20457;-89
2023/03/13 11:59:01;;;;;;;3.47;1.93;;;18.90;87.90;;;;;;4993917;28;20457;-85
2023/03/13 12:01:34;;;;;;;1.63;0.90;;;19.20;85.10;;;;;;4993509;28;20815;-89
2023/03/13 12:04:05;;;;;;;2.13;1.13;;;;;;;;;;4993288;28;20453;-93
2023/03/13 12:06:36;;;;;;;1.20;0.77;;;;;;;;;;4994914;28;20651;-88
2023/03/13 12:09:10;;;;;;;1.57;0.80;;;19.20;83.20;;;;;;4994699;28;20862;-82
2023/03/13 12:11:42;;;;;;;0.63;0.53;;;;;;;;;;4990755;28;20457;-88
2023/03/13 12:14:14;;;;;;;1.60;1.00;;;18.90;83.90;;;;;;4994210;28;20453;-83
2023/03/13 12:16:46;;;;;;;1.37;1.17;;;19.60;83.00;;;;;;4994872;28;20476;-86
2023/03/13 12:19:19;;;;;;;0.80;0.60;;;19.70;80.00;;;;;;4993356;28;20460;-88
2023/03/13 12:21:51;;;;;;;1.97;1.10;;;19.70;80.10;;;;;;4993475;28;20457;-85
2023/03/13 12:24:28;;;;;;;0.80;0.70;;;19.50;80.50;;;;;;4993581;28;20541;-83
2023/03/13 12:27:01;;;;;;;1.00;0.80;;;;;;;;;;4993540;28;20540;-90
2023/03/13 12:29:45;;;;;;;1.57;0.67;;;20.30;79.60;;;;;;4993112;28;20453;-89
2023/03/13 12:32:17;;;;;;;0.87;0.70;;;;;;;;;;4994163;28;20492;-91
2023/03/13 12:34:55;;;;;;;1.03;0.80;;;19.50;79.50;;;;;;4993293;28;20444;-90
2023/03/13 12:37:30;;;;;;;2.30;0.83;;;19.30;78.90;;;;;;4993579;28;20480;-85
2023/03/13 12:40:03;;;;;;;1.43;1.00;;;19.40;80.00;;;;;;4993201;28;20484;-86
2023/03/13 12:42:43;;;;;;;1.50;0.90;;;20.00;79.10;;;;;;4993166;28;20921;-86
2023/03/13 12:45:15;;;;;;;1.20;0.80;;;20.60;76.20;;;;;;4993224;28;20515;-85
2023/03/13 12:48:00;;;;;;;1.87;0.70;;;20.50;74.90;;;;;;4992060;28;20452;-84
2023/03/13 12:50:35;;;;;;;0.73;0.60;;;20.70;74.40;;;;;;4993217;28;20491;-84
2023/03/13 12:53:24;;;;;;;0.93;0.70;;;20.40;74.70;;;;;;4993469;28;20510;-83
2023/03/13 12:55:59;;;;;;;1.50;1.07;;;;;;;;;;4993069;28;20816;-86
2023/03/13 12:58:30;;;;;;;1.70;0.80;;;;;;;;;;4993399;28;20577;-86
2023/03/13 13:00:58;;;;;;;2.23;0.70;;;;;;;;;;4993116;28;20450;-88
2023/03/13 13:03:32;;;;;;;1.77;0.60;;;19.90;77.80;;;;;;4991907;28;20944;-86
2023/03/13 13:06:03;;;;;;;1.47;0.60;;;;;;;;;;4993298;28;20453;-90
2023/03/13 13:08:36;;;;;;;1.37;0.70;;;19.70;78.00;;;;;;4993112;28;20453;-90
2023/03/13 13:11:53;;;;;;;6.70;2.17;;;20.20;74.70;;;;;;4986971;28;20488;-83
2023/03/13 13:14:56;;;;;;;1.23;0.70;;;20.20;82.00;;;;;;4994983;28;20457;-84
2023/03/13 13:17:57;;;;;;;0.50;0.40;;;20.60;71.70;;;;;;4996855;28;20457;-83
2023/03/13 13:20:48;;;;;;;0.70;0.70;;;20.30;73.90;;;;;;4996137;28;20493;-84
2023/03/13 13:23:39;;;;;;;0.83;0.50;;;20.50;74.10;;;;;;4996306;28;20536;-84
2023/03/13 13:26:45;;;;;;;0.70;0.70;;;20.40;70.80;;;;;;4996199;28;20485;-85
2023/03/13 13:29:57;;;;;;;1.33;0.70;;;20.40;71.00;;;;;;4996335;28;20488;-84
2023/03/13 13:32:41;;;;;;;0.87;0.60;;;20.40;76.50;;;;;;4936270;29;20830;-84
2023/03/13 13:35:30;;;;;;;2.23;0.80;;;19.90;72.30;;;;;;4995561;28;20457;-91
2023/03/13 13:38:27;;;;;;;0.53;0.50;;;19.70;79.80;;;;;;4996572;28;20521;-87
2023/03/13 13:41:04;;;;;;;5.63;1.00;;;19.50;81.00;;;;;;4996432;28;20497;-90
2023/03/13 13:43:32;;;;;;;0.80;0.40;;;;;;;;;;4998132;28;20928;-90
2023/03/13 13:46:02;;;;;;;7.03;0.53;;;;;;;;;;4998910;28;20561;-84
2023/03/13 13:48:33;;;;;;;0.80;0.60;;;19.30;82.10;;;;;;4995913;28;20453;-92
2023/03/13 13:51:32;;;;;;;2.70;0.70;;;19.50;72.10;;;;;;4996869;28;20862;-86
2023/03/13 13:54:00;;;;;;;2.60;0.87;;;;;;;;;;4996053;28;20449;-88
2023/03/13 13:56:42;;;;;;;1.30;0.80;;;20.10;70.50;;;;;;4995856;28;20449;-82
2023/03/13 13:59:33;;;;;;;1.17;0.60;;;20.20;69.30;;;;;;4995488;28;20475;-83
2023/03/13 14:02:22;;;;;;;2.07;0.90;;;20.20;70.00;;;;;;4997297;28;20500;-86
2023/03/13 14:04:59;;;;;;;1.70;0.67;;;19.90;76.20;;;;;;5007619;28;20459;-92
2023/03/13 14:07:30;;;;;;;1.33;1.00;;;20.10;74.50;;;;;;5014592;28;20815;-87
2023/03/13 14:10:00;;;;;;;1.00;0.57;;;;;;;;;;5016467;28;20488;-85
2023/03/13 14:12:34;;;;;;;1.77;0.60;;;20.80;71.70;;;;;;5015851;28;20448;-84
2023/03/13 14:15:10;;;;;;;1.33;0.70;;;20.90;66.00;;;;;;5014190;28;20453;-80
2023/03/13 14:17:59;;;;;;;6.20;0.70;;;20.80;64.60;;;;;;5013228;28;20444;-85
2023/03/13 14:20:32;;;;;;;1.03;0.50;;;20.70;69.60;;;;;;5009443;28;20486;-86
2023/03/13 14:23:01;;;;;;;1.03;0.60;;;20.50;69.80;;;;;;5014454;28;20967;-83
2023/03/13 14:25:28;;;;;;;0.90;0.60;;;;;;;;;;5014600;28;20948;-86
2023/03/13 14:27:58;;;;;;;1.10;0.67;;;21.30;62.50;;;;;;5013163;28;20457;-87
2023/03/13 14:30:26;;;;;;;2.10;0.50;;;;;;;;;;5014373;28;20801;-87
2023/03/13 14:32:53;;;;;;;1.70;0.70;;;;;;;;;;5008536;28;20517;-86